createdAt,value
2018-05-27T00:00:12.745Z,7.18
2018-05-27T00:02:40.202Z,5.95
2018-05-27T00:05:07.645Z,6.45
2018-05-27T00:07:35.858Z,5.60
2018-05-27T00:10:04.066Z,6.65
2018-05-27T00:12:31.501Z,5.87
2018-05-27T00:14:58.961Z,5.95
2018-05-27T00:17:26.397Z,5.18
2018-05-27T00:19:54.626Z,5.80
2018-05-27T00:22:22.049Z,6.65
2018-05-27T00:24:49.500Z,8.15
2018-05-27T00:27:16.929Z,8.15
2018-05-27T00:29:44.365Z,6.33
2018-05-27T00:32:11.823Z,6.30
2018-05-27T00:34:39.253Z,6.40
2018-05-27T00:37:06.706Z,6.60
2018-05-27T00:39:34.150Z,8.20
2018-05-27T00:42:02.373Z,6.80
2018-05-27T00:44:29.809Z,6.70
2018-05-27T00:46:57.255Z,6.80
2018-05-27T00:49:24.686Z,6.47
2018-05-27T00:51:52.134Z,6.47
2018-05-27T00:54:19.565Z,6.97
2018-05-27T00:56:47.770Z,9.53
2018-05-27T00:59:15.969Z,7.75
2018-05-27T01:01:44.202Z,6.50
2018-05-27T01:04:11.646Z,7.97
2018-05-27T01:06:39.843Z,9.00
2018-05-27T01:09:07.285Z,9.95
2018-05-27T01:11:34.727Z,6.60
2018-05-27T01:14:02.926Z,7.63
2018-05-27T01:16:31.126Z,6.60
2018-05-27T01:18:59.356Z,10.80
2018-05-27T01:21:26.784Z,6.45
2018-05-27T01:23:54.221Z,6.72
2018-05-27T01:26:21.656Z,9.13
2018-05-27T01:28:49.106Z,7.50
2018-05-27T01:31:16.542Z,5.80
2018-05-27T01:33:43.985Z,7.45
2018-05-27T01:36:11.441Z,6.72
2018-05-27T01:38:38.882Z,9.13
2018-05-27T01:41:06.870Z,6.60
2018-05-27T01:43:34.343Z,6.10
2018-05-27T01:46:01.787Z,7.70
2018-05-27T01:48:29.223Z,6.57
2018-05-27T01:50:56.666Z,7.25
2018-05-27T01:53:24.093Z,6.77
2018-05-27T01:55:51.541Z,6.83
2018-05-27T01:58:18.988Z,7.37
2018-05-27T02:00:47.194Z,6.70
2018-05-27T02:03:15.958Z,6.63
2018-05-27T02:05:44.051Z,8.50
2018-05-27T02:08:11.503Z,6.97
2018-05-27T02:10:38.950Z,11.60
2018-05-27T02:13:06.396Z,7.53
2018-05-27T02:15:33.854Z,10.15
2018-05-27T02:18:01.285Z,7.60
2018-05-27T02:20:28.729Z,7.27
2018-05-27T02:22:56.162Z,8.30
2018-05-27T02:25:23.621Z,7.05
2018-05-27T02:27:52.305Z,7.47
2018-05-27T02:30:20.490Z,8.32
2018-05-27T02:32:48.710Z,8.15
2018-05-27T02:35:16.148Z,8.07
2018-05-27T02:37:43.585Z,7.80
2018-05-27T02:40:11.030Z,11.40
2018-05-27T02:42:39.034Z,7.70
2018-05-27T02:45:07.250Z,9.15
2018-05-27T02:47:35.460Z,7.90
2018-05-27T02:50:03.666Z,7.78
2018-05-27T02:52:31.114Z,9.10
2018-05-27T02:54:59.466Z,8.00
2018-05-27T02:57:26.906Z,8.00
2018-05-27T02:59:54.340Z,8.00
2018-05-27T03:02:21.797Z,7.90
2018-05-27T03:04:50.257Z,9.40
2018-05-27T03:07:17.712Z,8.30
2018-05-27T03:09:45.904Z,8.45
2018-05-27T03:12:14.122Z,8.68
2018-05-27T03:14:41.990Z,8.93
2018-05-27T03:17:10.191Z,8.15
2018-05-27T03:19:39.415Z,8.20
2018-05-27T03:22:07.626Z,9.43
2018-05-27T03:24:35.088Z,10.57
2018-05-27T03:27:02.518Z,8.70
2018-05-27T03:29:29.968Z,8.73
2018-05-27T03:31:58.169Z,7.97
2018-05-27T03:34:26.377Z,7.95
2018-05-27T03:36:53.810Z,8.45
2018-05-27T03:39:21.255Z,7.57
2018-05-27T03:41:48.702Z,7.37
2018-05-27T03:44:16.138Z,7.77
2018-05-27T03:46:43.582Z,7.23
2018-05-27T03:49:11.787Z,7.70
2018-05-27T03:51:41.209Z,7.82
2018-05-27T03:54:08.651Z,9.07
2018-05-27T03:56:36.106Z,11.80
2018-05-27T03:59:03.554Z,8.00
2018-05-27T04:01:31.774Z,7.50
2018-05-27T04:04:11.026Z,7.75
2018-05-27T04:06:51.133Z,6.50
2018-05-27T04:19:07.323Z,7.80
2018-05-27T04:21:34.758Z,8.63
2018-05-27T04:24:02.207Z,8.70
2018-05-27T04:26:29.655Z,9.20
2018-05-27T04:28:57.863Z,9.30
2018-05-27T04:31:25.318Z,11.40
2018-05-27T04:33:53.534Z,9.07
2018-05-27T04:36:22.602Z,8.40
2018-05-27T04:38:50.045Z,9.52
2018-05-27T04:41:17.509Z,7.68
2018-05-27T04:43:45.718Z,12.82
2018-05-27T04:46:13.942Z,8.75
2018-05-27T04:48:41.375Z,9.55
2018-05-27T04:58:30.161Z,9.93
2018-05-27T05:00:57.606Z,10.30
2018-05-27T05:03:25.047Z,10.45
2018-05-27T05:05:52.489Z,13.93
2018-05-27T05:08:19.930Z,11.77
2018-05-27T05:10:48.142Z,12.97
2018-05-27T05:13:15.582Z,12.53
2018-05-27T05:15:43.034Z,11.17
2018-05-27T05:18:10.480Z,10.88
2018-05-27T05:20:37.933Z,11.60
2018-05-27T05:23:06.141Z,10.90
2018-05-27T05:25:34.352Z,10.30
2018-05-27T05:28:02.575Z,11.60
2018-05-27T05:30:30.022Z,12.20
2018-05-27T05:32:58.238Z,11.45
2018-05-27T05:35:25.685Z,11.90
2018-05-27T05:37:53.142Z,12.75
2018-05-27T05:40:21.285Z,14.40
2018-05-27T05:42:49.504Z,15.05
2018-05-27T05:45:16.947Z,13.90
2018-05-27T05:47:44.402Z,14.73
2018-05-27T05:50:11.858Z,13.50
2018-05-27T05:52:39.322Z,14.23
2018-05-27T05:55:06.769Z,12.35
2018-05-27T05:57:34.223Z,14.02
2018-05-27T06:00:01.659Z,15.68
2018-05-27T06:02:30.929Z,21.12
2018-05-27T06:04:58.374Z,11.95
2018-05-27T06:07:26.602Z,13.77
2018-05-27T06:09:54.051Z,13.13
2018-05-27T06:12:22.278Z,12.00
2018-05-27T06:14:49.731Z,13.05
2018-05-27T06:17:17.954Z,14.07
2018-05-27T06:19:46.420Z,16.75
2018-05-27T06:22:15.207Z,13.85
2018-05-27T06:24:42.639Z,14.68
2018-05-27T06:27:10.842Z,18.35
2018-05-27T06:29:39.075Z,17.20
2018-05-27T06:32:06.550Z,19.77
2018-05-27T06:34:34.746Z,18.23
2018-05-27T06:37:02.198Z,17.33
2018-05-27T06:39:30.433Z,17.42
2018-05-27T06:41:57.901Z,17.75
2018-05-27T06:44:26.111Z,16.90
2018-05-27T06:46:53.562Z,22.37
2018-05-27T06:49:21.782Z,17.35
2018-05-27T06:51:49.238Z,19.98
2018-05-27T06:54:16.702Z,23.30
2018-05-27T06:56:45.983Z,20.25
2018-05-27T06:59:13.430Z,21.75
2018-05-27T07:01:41.653Z,26.17
2018-05-27T07:04:09.115Z,26.75
2018-05-27T07:06:37.337Z,22.73
2018-05-27T07:09:06.680Z,24.27
2018-05-27T07:11:34.152Z,25.25
2018-05-27T07:14:01.594Z,26.05
2018-05-27T07:16:29.812Z,21.02
2018-05-27T07:18:58.022Z,24.90
2018-05-27T07:21:25.487Z,23.50
2018-05-27T07:23:53.694Z,23.90
2018-05-27T07:26:21.905Z,25.13
2018-05-27T07:28:50.236Z,27.73
2018-05-27T07:31:18.258Z,25.70
2018-05-27T07:33:45.702Z,24.15
2018-05-27T07:36:13.154Z,25.00
2018-05-27T07:38:43.433Z,26.80
2018-05-27T07:41:10.883Z,24.40
2018-05-27T07:43:38.334Z,23.20
2018-05-27T07:46:05.791Z,22.62
2018-05-27T07:48:33.239Z,19.92
2018-05-27T07:51:00.685Z,17.95
2018-05-27T07:53:28.905Z,19.67
2018-05-27T07:55:56.349Z,18.30
2018-05-27T07:58:23.861Z,21.33
2018-05-27T08:00:51.253Z,22.35
2018-05-27T08:03:18.698Z,28.85
2018-05-27T08:05:46.157Z,24.12
2018-05-27T08:08:13.614Z,21.00
2018-05-27T08:10:41.040Z,21.95
2018-05-27T08:13:09.187Z,19.20
2018-05-27T08:15:36.622Z,16.07
2018-05-27T08:18:04.474Z,20.67
2018-05-27T08:20:31.906Z,21.93
2018-05-27T08:22:59.341Z,24.37
2018-05-27T08:25:26.782Z,20.53
2018-05-27T08:27:54.993Z,20.67
2018-05-27T08:30:22.436Z,21.03
2018-05-27T08:32:49.879Z,19.90
2018-05-27T08:35:17.322Z,17.80
2018-05-27T08:37:44.781Z,17.77
2018-05-27T08:40:12.214Z,20.93
2018-05-27T08:42:39.666Z,26.20
2018-05-27T08:45:07.869Z,22.80
2018-05-27T08:47:36.087Z,21.00
2018-05-27T08:50:03.531Z,15.07
2018-05-27T08:52:33.503Z,19.20
2018-05-27T08:55:01.690Z,14.00
2018-05-27T08:57:29.905Z,16.97
2018-05-27T08:59:57.337Z,17.47
2018-05-27T09:02:24.806Z,12.83
2018-05-27T09:04:52.243Z,16.53
2018-05-27T09:07:20.449Z,15.80
2018-05-27T09:09:48.666Z,20.50
2018-05-27T09:12:16.102Z,16.10
2018-05-27T09:14:43.558Z,17.20
2018-05-27T09:17:11.006Z,17.80
2018-05-27T09:39:16.005Z,15.23
2018-05-27T09:41:43.392Z,9.63
2018-05-27T09:44:11.594Z,7.83
2018-05-27T09:46:39.034Z,8.10
2018-05-27T09:49:06.864Z,6.03
2018-05-27T09:51:35.306Z,8.50
2018-05-27T09:54:02.733Z,7.10
2018-05-27T09:56:30.182Z,7.62
2018-05-27T09:58:58.855Z,7.10
2018-05-27T10:01:27.057Z,8.60
2018-05-27T10:03:54.493Z,12.07
2018-05-27T10:06:21.946Z,10.60
2018-05-27T10:08:49.381Z,7.93
2018-05-27T10:11:17.594Z,8.30
2018-05-27T10:13:45.793Z,9.45
2018-05-27T10:16:14.014Z,6.82
2018-05-27T10:18:41.490Z,8.10
2018-05-27T10:21:08.929Z,7.30
2018-05-27T10:23:36.444Z,7.20
2018-05-27T10:26:04.731Z,9.90
2018-05-27T10:28:32.850Z,6.70
2018-05-27T10:31:01.054Z,6.80
2018-05-27T10:33:29.229Z,7.12
2018-05-27T10:35:57.450Z,6.78
2018-05-27T10:38:24.893Z,8.75
2018-05-27T10:40:52.345Z,9.32
2018-05-27T10:43:19.798Z,10.00
2018-05-27T10:45:47.261Z,7.90
2018-05-27T10:48:15.462Z,12.63
2018-05-27T10:50:43.671Z,8.88
2018-05-27T10:53:11.119Z,9.80
2018-05-27T10:55:38.546Z,7.53
2018-05-27T10:58:05.991Z,7.28
2018-05-27T11:00:34.339Z,7.72
2018-05-27T11:03:01.779Z,7.35
2018-05-27T11:05:29.212Z,6.70
2018-05-27T11:07:56.650Z,9.88
2018-05-27T11:10:24.858Z,10.32
2018-05-27T11:12:53.082Z,7.10
2018-05-27T11:15:20.526Z,7.40
2018-05-27T11:17:47.978Z,8.07
2018-05-27T11:20:15.418Z,7.12
2018-05-27T11:22:43.626Z,8.60
2018-05-27T11:25:11.058Z,6.80
2018-05-27T11:27:38.502Z,11.13
2018-05-27T11:30:05.937Z,10.77
2018-05-27T11:32:33.386Z,7.25
2018-05-27T11:35:00.834Z,11.77
2018-05-27T11:37:28.277Z,9.00
2018-05-27T11:39:55.722Z,10.02
2018-05-27T11:42:23.167Z,8.70
2018-05-27T11:44:50.601Z,13.60
2018-05-27T11:47:18.041Z,11.50
2018-05-27T11:49:47.214Z,7.80
2018-05-27T11:52:14.658Z,6.03
2018-05-27T11:54:42.102Z,5.62
2018-05-27T11:57:10.299Z,9.85
2018-05-27T11:59:38.521Z,12.00
2018-05-27T12:02:06.723Z,9.80
2018-05-27T12:04:34.157Z,11.23
2018-05-27T12:07:01.594Z,9.35
2018-05-27T12:09:29.205Z,20.10
2018-05-27T12:11:56.483Z,10.70
2018-05-27T12:14:23.927Z,10.75
2018-05-27T12:16:52.139Z,10.30
2018-05-27T12:19:19.582Z,8.02
2018-05-27T12:21:47.029Z,6.70
2018-05-27T12:24:14.473Z,8.13
2018-05-27T12:26:42.734Z,6.87
2018-05-27T12:29:10.178Z,8.20
2018-05-27T12:31:37.626Z,11.68
2018-05-27T12:34:05.060Z,6.40
2018-05-27T12:36:33.331Z,6.97
2018-05-27T12:39:01.525Z,6.65
2018-05-27T12:41:29.737Z,11.70
2018-05-27T12:43:57.168Z,6.30
2018-05-27T12:46:24.610Z,6.50
2018-05-27T12:48:52.051Z,10.88
2018-05-27T12:51:19.493Z,6.87
2018-05-27T12:53:46.921Z,8.73
2018-05-27T12:56:15.139Z,6.03
2018-05-27T12:58:43.417Z,6.50
2018-05-27T13:01:11.683Z,8.83
2018-05-27T13:03:39.070Z,6.40
2018-05-27T13:06:06.518Z,5.10
2018-05-27T13:08:33.950Z,5.85
2018-05-27T13:11:01.390Z,8.23
2018-05-27T13:13:28.822Z,6.70
2018-05-27T13:15:56.277Z,27.93
2018-05-27T13:18:23.709Z,5.57
2018-05-27T13:20:51.912Z,5.25
2018-05-27T13:23:20.140Z,4.80
2018-05-27T13:25:48.390Z,4.10
2018-05-27T13:28:16.410Z,5.30
2018-05-27T13:30:44.606Z,7.00
2018-05-27T13:33:12.814Z,5.70
2018-05-27T13:35:40.263Z,5.12
2018-05-27T13:38:07.709Z,5.68
2018-05-27T13:40:35.158Z,4.60
2018-05-27T13:43:03.366Z,6.18
2018-05-27T13:45:30.798Z,5.10
2018-05-27T13:47:59.246Z,4.40
2018-05-27T13:50:27.557Z,5.80
2018-05-27T13:52:55.004Z,3.70
2018-05-27T13:55:22.474Z,5.50
2018-05-27T13:57:49.884Z,5.95
2018-05-27T14:00:18.126Z,3.80
2018-05-27T14:02:45.541Z,3.33
2018-05-27T14:05:12.978Z,4.12
2018-05-27T14:07:40.434Z,4.83
2018-05-27T14:10:08.676Z,4.00
2018-05-27T14:12:36.829Z,4.47
2018-05-27T14:15:05.046Z,3.50
2018-05-27T14:17:32.483Z,3.40
2018-05-27T14:19:59.926Z,2.80
2018-05-27T14:22:27.357Z,3.40
2018-05-27T14:24:54.798Z,5.47
2018-05-27T14:27:22.234Z,3.00
2018-05-27T14:29:50.458Z,3.25
2018-05-27T14:32:17.897Z,2.70
2018-05-27T14:34:45.352Z,6.70
2018-05-27T14:37:12.794Z,3.87
2018-05-27T14:39:41.011Z,3.10
2018-05-27T14:42:08.448Z,3.08
2018-05-27T14:44:35.890Z,2.90
2018-05-27T14:47:03.331Z,3.10
2018-05-27T14:49:30.761Z,3.00
2018-05-27T14:51:58.206Z,5.10
2018-05-27T14:54:26.413Z,3.40
2018-05-27T14:56:54.854Z,2.70
2018-05-27T14:59:22.294Z,3.00
2018-05-27T15:01:50.501Z,3.47
2018-05-27T15:04:17.944Z,3.30
2018-05-27T15:06:45.373Z,3.05
2018-05-27T15:09:12.805Z,3.72
2018-05-27T15:11:40.247Z,3.30
2018-05-27T15:14:07.690Z,7.35
2018-05-27T15:16:35.893Z,3.65
2018-05-27T15:19:04.091Z,3.10
2018-05-27T15:21:32.305Z,3.30
2018-05-27T15:24:00.502Z,3.20
2018-05-27T15:26:28.717Z,3.10
2018-05-27T15:28:56.150Z,3.67
2018-05-27T15:31:23.981Z,3.12
2018-05-27T15:33:52.174Z,2.78
2018-05-27T15:36:20.390Z,2.70
2018-05-27T15:38:47.834Z,2.83
2018-05-27T15:41:15.290Z,3.30
2018-05-27T15:43:43.494Z,6.30
2018-05-27T15:46:10.930Z,2.78
2018-05-27T15:48:38.374Z,2.72
2018-05-27T15:51:05.809Z,3.70
2018-05-27T15:53:33.249Z,3.30
2018-05-27T15:56:00.695Z,3.20
2018-05-27T15:58:28.154Z,3.60
2018-05-27T16:00:55.597Z,5.40
2018-05-27T16:03:23.050Z,3.60
2018-05-27T16:05:50.507Z,3.50
2018-05-27T16:08:17.949Z,5.45
2018-05-27T16:10:45.381Z,3.63
2018-05-27T16:13:12.826Z,4.17
2018-05-27T16:15:40.272Z,3.53
2018-05-27T16:18:07.710Z,5.90
2018-05-27T16:20:35.909Z,3.90
2018-05-27T16:23:04.204Z,3.85
2018-05-27T16:25:31.601Z,5.22
2018-05-27T16:27:59.794Z,3.75
2018-05-27T16:30:27.994Z,5.55
2018-05-27T16:32:55.450Z,3.35
2018-05-27T16:35:22.890Z,3.80
2018-05-27T16:37:51.747Z,3.50
2018-05-27T16:40:19.187Z,3.58
2018-05-27T16:42:46.631Z,4.10
2018-05-27T16:45:14.082Z,3.30
2018-05-27T16:47:42.166Z,3.62
2018-05-27T16:50:09.614Z,4.10
2018-05-27T16:52:37.059Z,4.75
2018-05-27T16:55:05.315Z,3.80
2018-05-27T16:57:32.758Z,3.72
2018-05-27T17:00:00.902Z,4.15
2018-05-27T17:02:28.350Z,4.22
2018-05-27T17:04:55.809Z,3.97
2018-05-27T17:07:24.006Z,4.20
2018-05-27T17:09:51.451Z,3.87
2018-05-27T17:12:18.893Z,5.93
2018-05-27T17:14:46.330Z,4.40
2018-05-27T17:17:13.761Z,3.40
2018-05-27T17:19:41.229Z,4.30
2018-05-27T17:22:08.661Z,6.13
2018-05-27T17:24:36.853Z,4.40
2018-05-27T17:27:05.058Z,6.87
2018-05-27T17:29:33.253Z,4.00
2018-05-27T17:32:00.696Z,9.90
2018-05-27T17:34:28.125Z,9.53
2018-05-27T17:36:56.338Z,4.40
2018-05-27T17:39:24.543Z,4.18
2018-05-27T17:41:51.998Z,4.30
2018-05-27T17:44:19.437Z,4.05
2018-05-27T17:46:46.890Z,4.00
2018-05-27T17:49:14.333Z,4.45
2018-05-27T17:51:41.792Z,4.28
2018-05-27T17:54:09.221Z,3.90
2018-05-27T17:56:37.430Z,3.70
2018-05-27T17:59:04.865Z,4.10
2018-05-27T18:01:32.301Z,5.17
2018-05-27T18:03:59.734Z,5.70
2018-05-27T18:06:27.183Z,4.55
2018-05-27T18:08:54.682Z,4.97
2018-05-27T18:11:22.134Z,7.37
2018-05-27T18:13:49.577Z,3.92
2018-05-27T18:16:17.005Z,4.15
2018-05-27T18:18:44.449Z,5.80
2018-05-27T18:21:12.655Z,6.20
2018-05-27T18:23:40.878Z,4.20
2018-05-27T18:26:08.313Z,6.43
2018-05-27T18:28:35.771Z,6.15
2018-05-27T18:31:03.214Z,6.28
2018-05-27T18:33:30.670Z,5.40
2018-05-27T18:35:58.126Z,5.72
2018-05-27T18:38:25.586Z,4.53
2018-05-27T18:40:55.237Z,4.28
2018-05-27T18:43:22.683Z,4.87
2018-05-27T18:45:50.117Z,4.62
2018-05-27T18:48:18.332Z,7.22
2018-05-27T18:50:45.790Z,4.97
2018-05-27T18:53:13.230Z,5.00
2018-05-27T18:55:41.447Z,4.87
2018-05-27T18:58:08.901Z,6.35
2018-05-27T19:00:37.109Z,5.40
2018-05-27T19:03:04.542Z,5.40
2018-05-27T19:05:32.341Z,5.40
2018-05-27T19:08:00.025Z,5.68
2018-05-27T19:10:27.461Z,5.85
2018-05-27T19:12:54.903Z,4.85
2018-05-27T19:15:22.354Z,5.22
2018-05-27T19:17:49.794Z,5.55
2018-05-27T19:20:18.007Z,8.75
2018-05-27T19:22:45.438Z,19.57
2018-05-27T19:25:12.878Z,5.60
2018-05-27T19:27:42.388Z,5.90
2018-05-27T19:30:10.600Z,4.93
2018-05-27T19:32:38.791Z,6.40
2018-05-27T19:35:06.994Z,5.87
2018-05-27T19:37:35.193Z,6.00
2018-05-27T19:40:03.397Z,5.70
2018-05-27T19:42:31.598Z,5.80
2018-05-27T19:44:59.820Z,6.87
2018-05-27T19:47:28.016Z,6.70
2018-05-27T19:49:56.246Z,6.35
2018-05-27T19:52:24.392Z,6.03
2018-05-27T19:54:51.858Z,6.75
2018-05-27T19:57:19.282Z,6.40
2018-05-27T19:59:46.731Z,5.60
2018-05-27T20:02:14.186Z,6.00
2018-05-27T20:04:41.628Z,5.60
2018-05-27T20:07:09.078Z,6.60
2018-05-27T20:09:36.518Z,7.18
2018-05-27T20:12:03.960Z,6.47
2018-05-27T20:14:32.297Z,6.47
2018-05-27T20:16:59.744Z,6.75
2018-05-27T20:19:27.190Z,11.23
2018-05-27T20:21:54.633Z,6.10
2018-05-27T20:24:22.071Z,9.93
2018-05-27T20:26:49.514Z,6.70
2018-05-27T20:29:16.946Z,6.40
2018-05-27T20:31:44.394Z,9.75
2018-05-27T20:34:11.830Z,8.30
2018-05-27T20:36:40.570Z,8.20
2018-05-27T20:39:08.084Z,9.35
2018-05-27T20:41:35.533Z,10.70
2018-05-27T20:44:02.976Z,9.43
2018-05-27T20:46:30.411Z,7.20
2018-05-27T20:48:57.864Z,6.72
2018-05-27T20:51:25.299Z,7.72
2018-05-27T20:53:52.742Z,9.30
2018-05-27T20:56:20.198Z,7.87
2018-05-27T20:58:48.413Z,6.93
2018-05-27T21:01:16.620Z,9.30
2018-05-27T21:03:44.822Z,8.50
2018-05-27T21:06:12.267Z,11.23
2018-05-27T21:08:39.722Z,8.40
2018-05-27T21:11:07.167Z,7.07
2018-05-27T21:13:35.370Z,8.37
2018-05-27T21:16:02.802Z,9.60
2018-05-27T21:18:30.247Z,9.50
2018-05-27T21:20:57.690Z,11.70
2018-05-27T21:23:25.898Z,10.73
2018-05-27T21:25:54.102Z,8.77
2018-05-27T21:28:22.307Z,9.30
2018-05-27T21:30:50.516Z,7.10
2018-05-27T21:33:17.958Z,8.40
2018-05-27T21:35:45.396Z,7.30
2018-05-27T21:38:12.851Z,11.83
2018-05-27T21:43:08.065Z,11.50
2018-05-27T22:37:09.365Z,13.40
2018-05-27T22:39:37.563Z,10.40
2018-05-27T22:42:05.769Z,10.17
2018-05-27T22:44:33.985Z,10.15
2018-05-27T22:47:01.445Z,7.75
2018-05-27T22:49:29.673Z,8.30
2018-05-27T22:51:57.126Z,9.07
2018-05-27T22:54:25.327Z,8.65
2018-05-27T22:56:53.538Z,8.45
2018-05-27T22:59:20.985Z,10.10
2018-05-27T23:01:48.418Z,8.23
2018-05-27T23:04:17.880Z,10.73
2018-05-27T23:06:45.309Z,10.63
2018-05-27T23:09:12.763Z,10.63
2018-05-27T23:11:40.969Z,8.97
2018-05-27T23:14:09.187Z,9.43
2018-05-27T23:16:36.618Z,9.00
2018-05-27T23:19:04.072Z,8.00
2018-05-27T23:21:31.501Z,8.10
2018-05-27T23:23:58.961Z,9.07
2018-05-27T23:26:26.409Z,13.32
2018-05-27T23:28:53.873Z,8.80
2018-05-27T23:31:22.078Z,8.18
2018-05-27T23:33:49.521Z,9.50
2018-05-27T23:36:16.986Z,8.60
2018-05-27T23:38:44.437Z,12.30
2018-05-27T23:41:11.871Z,8.70
2018-05-27T23:43:39.324Z,10.53
2018-05-27T23:46:06.781Z,8.55
2018-05-27T23:48:34.234Z,8.40
2018-05-27T23:51:01.679Z,9.98
2018-05-27T23:53:29.150Z,8.63
2018-05-27T23:55:56.581Z,10.27
2018-05-27T23:58:24.783Z,9.85
